sensor_id;sensor_type;location;lat;lon;timestamp;P1;durP1;ratioP1;P2;durP2;ratioP2
50769;SDS011;36740;48.698;11.472;2022-08-19T00:00:13;28.08;;;16.42;;
50769;SDS011;36740;48.698;11.472;2022-08-19T00:02:59;25.92;;;18.30;;
50769;SDS011;36740;48.698;11.472;2022-08-19T00:05:45;25.13;;;17.65;;
50769;SDS011;36740;48.698;11.472;2022-08-19T00:08:30;26.70;;;18.48;;
50769;SDS011;36740;48.698;11.472;2022-08-19T00:11:16;32.08;;;20.42;;
50769;SDS011;36740;48.698;11.472;2022-08-19T00:14:03;30.10;;;17.33;;
50769;SDS011;36740;48.698;11.472;2022-08-19T00:16:49;24.05;;;16.08;;
50769;SDS011;36740;48.698;11.472;2022-08-19T00:19:36;25.58;;;16.95;;
50769;SDS011;36740;48.698;11.472;2022-08-19T00:22:22;23.23;;;17.55;;
50769;SDS011;36740;48.698;11.472;2022-08-19T00:25:08;22.42;;;16.15;;
50769;SDS011;36740;48.698;11.472;2022-08-19T00:27:54;23.63;;;18.45;;
50769;SDS011;36740;48.698;11.472;2022-08-19T00:30:39;27.17;;;19.13;;
50769;SDS011;36740;48.698;11.472;2022-08-19T00:33:26;25.00;;;17.80;;
50769;SDS011;36740;48.698;11.472;2022-08-19T00:36:11;23.63;;;17.08;;
50769;SDS011;36740;48.698;11.472;2022-08-19T00:38:57;23.90;;;14.95;;
50769;SDS011;36740;48.698;11.472;2022-08-19T00:41:44;29.17;;;18.42;;
50769;SDS011;36740;48.698;11.472;2022-08-19T00:44:32;26.77;;;19.80;;
50769;SDS011;36740;48.698;11.472;2022-08-19T00:47:18;28.30;;;19.10;;
50769;SDS011;36740;48.698;11.472;2022-08-19T00:50:04;26.10;;;17.25;;
50769;SDS011;36740;48.698;11.472;2022-08-19T00:52:51;24.67;;;15.93;;
50769;SDS011;36740;48.698;11.472;2022-08-19T00:55:36;23.55;;;16.33;;
50769;SDS011;36740;48.698;11.472;2022-08-19T00:58:24;21.08;;;15.82;;
50769;SDS011;36740;48.698;11.472;2022-08-19T01:01:12;29.70;;;17.98;;
50769;SDS011;36740;48.698;11.472;2022-08-19T01:03:59;22.33;;;16.60;;
50769;SDS011;36740;48.698;11.472;2022-08-19T01:06:45;24.58;;;16.88;;
50769;SDS011;36740;48.698;11.472;2022-08-19T01:09:30;24.52;;;16.33;;
50769;SDS011;36740;48.698;11.472;2022-08-19T01:12:16;26.13;;;18.60;;
50769;SDS011;36740;48.698;11.472;2022-08-19T01:15:02;22.85;;;17.17;;
50769;SDS011;36740;48.698;11.472;2022-08-19T01:17:49;23.35;;;16.10;;
50769;SDS011;36740;48.698;11.472;2022-08-19T01:20:35;21.83;;;16.02;;
50769;SDS011;36740;48.698;11.472;2022-08-19T01:23:20;19.23;;;13.75;;
50769;SDS011;36740;48.698;11.472;2022-08-19T01:26:06;31.05;;;17.35;;
50769;SDS011;36740;48.698;11.472;2022-08-19T01:28:53;23.08;;;16.80;;
50769;SDS011;36740;48.698;11.472;2022-08-19T01:31:39;32.28;;;16.33;;
50769;SDS011;36740;48.698;11.472;2022-08-19T01:34:25;25.95;;;16.15;;
50769;SDS011;36740;48.698;11.472;2022-08-19T01:37:11;30.08;;;18.48;;
50769;SDS011;36740;48.698;11.472;2022-08-19T01:39:57;30.67;;;20.20;;
50769;SDS011;36740;48.698;11.472;2022-08-19T01:42:43;26.63;;;16.13;;
50769;SDS011;36740;48.698;11.472;2022-08-19T01:45:30;25.45;;;19.98;;
50769;SDS011;36740;48.698;11.472;2022-08-19T01:48:16;22.90;;;18.58;;
50769;SDS011;36740;48.698;11.472;2022-08-19T01:51:02;25.38;;;17.63;;
50769;SDS011;36740;48.698;11.472;2022-08-19T01:53:48;23.35;;;17.63;;
50769;SDS011;36740;48.698;11.472;2022-08-19T01:56:34;23.55;;;15.45;;
50769;SDS011;36740;48.698;11.472;2022-08-19T01:59:20;20.77;;;15.75;;
50769;SDS011;36740;48.698;11.472;2022-08-19T02:02:08;22.50;;;16.40;;
50769;SDS011;36740;48.698;11.472;2022-08-19T02:04:54;25.23;;;15.82;;
50769;SDS011;36740;48.698;11.472;2022-08-19T02:07:40;26.70;;;17.52;;
50769;SDS011;36740;48.698;11.472;2022-08-19T02:10:25;20.83;;;14.60;;
50769;SDS011;36740;48.698;11.472;2022-08-19T02:13:12;23.23;;;14.57;;
50769;SDS011;36740;48.698;11.472;2022-08-19T02:15:58;24.08;;;14.80;;
50769;SDS011;36740;48.698;11.472;2022-08-19T02:18:44;22.70;;;14.98;;
50769;SDS011;36740;48.698;11.472;2022-08-19T02:21:30;22.23;;;14.15;;
50769;SDS011;36740;48.698;11.472;2022-08-19T02:24:15;19.38;;;14.00;;
50769;SDS011;36740;48.698;11.472;2022-08-19T02:27:01;19.30;;;12.48;;
50769;SDS011;36740;48.698;11.472;2022-08-19T02:29:47;22.25;;;15.82;;
50769;SDS011;36740;48.698;11.472;2022-08-19T02:32:34;21.02;;;15.27;;
50769;SDS011;36740;48.698;11.472;2022-08-19T02:35:20;23.23;;;16.52;;
50769;SDS011;36740;48.698;11.472;2022-08-19T02:38:06;19.63;;;14.63;;
50769;SDS011;36740;48.698;11.472;2022-08-19T02:41:15;22.83;;;12.75;;
50769;SDS011;36740;48.698;11.472;2022-08-19T02:44:02;20.58;;;13.38;;
50769;SDS011;36740;48.698;11.472;2022-08-19T02:46:49;25.65;;;16.33;;
50769;SDS011;36740;48.698;11.472;2022-08-19T02:49:35;23.83;;;16.27;;
50769;SDS011;36740;48.698;11.472;2022-08-19T02:52:21;26.20;;;17.15;;
50769;SDS011;36740;48.698;11.472;2022-08-19T02:55:08;22.52;;;15.05;;
50769;SDS011;36740;48.698;11.472;2022-08-19T02:57:54;28.30;;;16.50;;
50769;SDS011;36740;48.698;11.472;2022-08-19T03:00:44;19.95;;;14.68;;
50769;SDS011;36740;48.698;11.472;2022-08-19T03:03:30;18.58;;;13.63;;
50769;SDS011;36740;48.698;11.472;2022-08-19T03:06:17;22.73;;;16.05;;
50769;SDS011;36740;48.698;11.472;2022-08-19T03:09:03;24.98;;;16.85;;
50769;SDS011;36740;48.698;11.472;2022-08-19T03:11:48;22.73;;;15.00;;
50769;SDS011;36740;48.698;11.472;2022-08-19T03:14:34;25.52;;;15.65;;
50769;SDS011;36740;48.698;11.472;2022-08-19T03:17:20;20.80;;;15.07;;
50769;SDS011;36740;48.698;11.472;2022-08-19T03:20:06;23.60;;;15.48;;
50769;SDS011;36740;48.698;11.472;2022-08-19T03:22:52;22.73;;;15.73;;
50769;SDS011;36740;48.698;11.472;2022-08-19T03:25:41;25.15;;;16.23;;
50769;SDS011;36740;48.698;11.472;2022-08-19T03:28:28;24.92;;;16.23;;
50769;SDS011;36740;48.698;11.472;2022-08-19T03:31:14;19.85;;;12.93;;
50769;SDS011;36740;48.698;11.472;2022-08-19T03:33:59;22.95;;;14.50;;
50769;SDS011;36740;48.698;11.472;2022-08-19T03:36:46;27.73;;;16.27;;
50769;SDS011;36740;48.698;11.472;2022-08-19T03:39:31;20.58;;;13.73;;
50769;SDS011;36740;48.698;11.472;2022-08-19T03:42:17;24.15;;;14.70;;
50769;SDS011;36740;48.698;11.472;2022-08-19T03:45:03;26.40;;;15.02;;
50769;SDS011;36740;48.698;11.472;2022-08-19T03:47:49;23.05;;;17.15;;
50769;SDS011;36740;48.698;11.472;2022-08-19T03:50:38;21.55;;;16.10;;
50769;SDS011;36740;48.698;11.472;2022-08-19T03:53:24;28.77;;;16.37;;
50769;SDS011;36740;48.698;11.472;2022-08-19T03:56:10;25.85;;;16.45;;
50769;SDS011;36740;48.698;11.472;2022-08-19T03:58:57;18.30;;;14.23;;
50769;SDS011;36740;48.698;11.472;2022-08-19T04:01:43;21.48;;;13.80;;
50769;SDS011;36740;48.698;11.472;2022-08-19T04:04:29;21.23;;;14.02;;
50769;SDS011;36740;48.698;11.472;2022-08-19T04:07:15;25.63;;;17.67;;
50769;SDS011;36740;48.698;11.472;2022-08-19T04:10:01;29.75;;;18.00;;
50769;SDS011;36740;48.698;11.472;2022-08-19T04:12:47;26.00;;;16.42;;
50769;SDS011;36740;48.698;11.472;2022-08-19T04:15:33;23.27;;;15.13;;
50769;SDS011;36740;48.698;11.472;2022-08-19T04:18:24;40.47;;;15.48;;
50769;SDS011;36740;48.698;11.472;2022-08-19T04:21:15;22.88;;;16.52;;
50769;SDS011;36740;48.698;11.472;2022-08-19T04:24:02;23.90;;;15.10;;
50769;SDS011;36740;48.698;11.472;2022-08-19T04:26:48;21.92;;;13.43;;
50769;SDS011;36740;48.698;11.472;2022-08-19T04:29:33;22.75;;;15.70;;
50769;SDS011;36740;48.698;11.472;2022-08-19T04:32:20;21.98;;;15.35;;
50769;SDS011;36740;48.698;11.472;2022-08-19T04:35:06;21.83;;;14.88;;
50769;SDS011;36740;48.698;11.472;2022-08-19T04:37:52;23.77;;;15.38;;
50769;SDS011;36740;48.698;11.472;2022-08-19T04:40:41;22.35;;;14.20;;
50769;SDS011;36740;48.698;11.472;2022-08-19T04:43:46;21.15;;;14.32;;
50769;SDS011;36740;48.698;11.472;2022-08-19T04:46:34;24.88;;;14.68;;
50769;SDS011;36740;48.698;11.472;2022-08-19T04:49:20;23.77;;;15.20;;
50769;SDS011;36740;48.698;11.472;2022-08-19T04:52:07;26.67;;;15.50;;
50769;SDS011;36740;48.698;11.472;2022-08-19T04:54:53;23.88;;;17.70;;
50769;SDS011;36740;48.698;11.472;2022-08-19T04:57:40;22.38;;;14.23;;
50769;SDS011;36740;48.698;11.472;2022-08-19T05:00:26;26.70;;;16.02;;
50769;SDS011;36740;48.698;11.472;2022-08-19T05:03:12;21.35;;;14.30;;
50769;SDS011;36740;48.698;11.472;2022-08-19T05:05:58;22.77;;;15.32;;
50769;SDS011;36740;48.698;11.472;2022-08-19T05:08:44;20.42;;;11.57;;
50769;SDS011;36740;48.698;11.472;2022-08-19T05:11:34;22.67;;;14.88;;
50769;SDS011;36740;48.698;11.472;2022-08-19T05:14:20;23.27;;;17.10;;
50769;SDS011;36740;48.698;11.472;2022-08-19T05:17:06;22.55;;;13.52;;
50769;SDS011;36740;48.698;11.472;2022-08-19T05:19:52;24.33;;;15.93;;
50769;SDS011;36740;48.698;11.472;2022-08-19T05:22:56;29.98;;;14.50;;
50769;SDS011;36740;48.698;11.472;2022-08-19T05:25:42;22.33;;;15.57;;
50769;SDS011;36740;48.698;11.472;2022-08-19T05:28:28;26.92;;;16.08;;
50769;SDS011;36740;48.698;11.472;2022-08-19T05:31:13;21.20;;;14.95;;
50769;SDS011;36740;48.698;11.472;2022-08-19T05:33:59;21.33;;;14.27;;
50769;SDS011;36740;48.698;11.472;2022-08-19T05:36:45;27.63;;;16.90;;
50769;SDS011;36740;48.698;11.472;2022-08-19T05:39:31;25.00;;;17.73;;
50769;SDS011;36740;48.698;11.472;2022-08-19T05:42:17;31.73;;;19.40;;
50769;SDS011;36740;48.698;11.472;2022-08-19T05:45:06;27.80;;;16.98;;
50769;SDS011;36740;48.698;11.472;2022-08-19T05:47:52;27.40;;;17.00;;
50769;SDS011;36740;48.698;11.472;2022-08-19T05:50:38;26.42;;;17.17;;
50769;SDS011;36740;48.698;11.472;2022-08-19T05:53:24;29.27;;;17.60;;
50769;SDS011;36740;48.698;11.472;2022-08-19T05:56:12;27.88;;;18.70;;
50769;SDS011;36740;48.698;11.472;2022-08-19T05:58:58;32.35;;;17.98;;
50769;SDS011;36740;48.698;11.472;2022-08-19T06:01:45;26.35;;;19.55;;
50769;SDS011;36740;48.698;11.472;2022-08-19T06:04:30;28.98;;;19.35;;
50769;SDS011;36740;48.698;11.472;2022-08-19T06:07:16;25.00;;;20.20;;
50769;SDS011;36740;48.698;11.472;2022-08-19T06:10:03;29.90;;;19.35;;
50769;SDS011;36740;48.698;11.472;2022-08-19T06:12:49;28.92;;;19.02;;
50769;SDS011;36740;48.698;11.472;2022-08-19T06:15:35;31.85;;;18.90;;
50769;SDS011;36740;48.698;11.472;2022-08-19T06:18:20;31.00;;;18.55;;
50769;SDS011;36740;48.698;11.472;2022-08-19T06:21:07;33.40;;;20.50;;
50769;SDS011;36740;48.698;11.472;2022-08-19T06:23:56;31.63;;;20.90;;
50769;SDS011;36740;48.698;11.472;2022-08-19T06:26:42;30.67;;;21.73;;
50769;SDS011;36740;48.698;11.472;2022-08-19T06:29:29;29.55;;;19.60;;
50769;SDS011;36740;48.698;11.472;2022-08-19T06:32:16;37.45;;;18.38;;
50769;SDS011;36740;48.698;11.472;2022-08-19T06:35:01;23.83;;;16.45;;
50769;SDS011;36740;48.698;11.472;2022-08-19T06:37:47;26.67;;;17.10;;
50769;SDS011;36740;48.698;11.472;2022-08-19T06:40:33;30.17;;;20.23;;
50769;SDS011;36740;48.698;11.472;2022-08-19T06:43:18;25.38;;;17.25;;
50769;SDS011;36740;48.698;11.472;2022-08-19T06:46:08;28.15;;;18.88;;
50769;SDS011;36740;48.698;11.472;2022-08-19T06:48:56;29.70;;;18.33;;
50769;SDS011;36740;48.698;11.472;2022-08-19T06:51:42;29.10;;;18.73;;
50769;SDS011;36740;48.698;11.472;2022-08-19T06:54:28;31.00;;;18.88;;
50769;SDS011;36740;48.698;11.472;2022-08-19T06:57:17;31.98;;;20.67;;
50769;SDS011;36740;48.698;11.472;2022-08-19T07:00:04;27.45;;;20.08;;
50769;SDS011;36740;48.698;11.472;2022-08-19T07:02:50;25.10;;;17.88;;
50769;SDS011;36740;48.698;11.472;2022-08-19T07:05:40;26.45;;;17.23;;
50769;SDS011;36740;48.698;11.472;2022-08-19T07:08:25;28.50;;;21.98;;
50769;SDS011;36740;48.698;11.472;2022-08-19T07:11:13;30.42;;;20.52;;
50769;SDS011;36740;48.698;11.472;2022-08-19T07:13:59;30.88;;;24.02;;
50769;SDS011;36740;48.698;11.472;2022-08-19T07:16:45;38.30;;;23.05;;
50769;SDS011;36740;48.698;11.472;2022-08-19T07:19:31;30.83;;;21.55;;
50769;SDS011;36740;48.698;11.472;2022-08-19T07:22:17;37.30;;;22.38;;
50769;SDS011;36740;48.698;11.472;2022-08-19T07:25:03;31.35;;;21.77;;
50769;SDS011;36740;48.698;11.472;2022-08-19T07:27:50;34.70;;;21.98;;
50769;SDS011;36740;48.698;11.472;2022-08-19T07:30:36;30.88;;;21.90;;
50769;SDS011;36740;48.698;11.472;2022-08-19T07:33:22;32.67;;;21.95;;
50769;SDS011;36740;48.698;11.472;2022-08-19T07:36:09;45.92;;;25.00;;
50769;SDS011;36740;48.698;11.472;2022-08-19T07:38:56;36.50;;;22.60;;
50769;SDS011;36740;48.698;11.472;2022-08-19T07:41:42;26.20;;;20.15;;
50769;SDS011;36740;48.698;11.472;2022-08-19T07:44:28;31.63;;;24.50;;
50769;SDS011;36740;48.698;11.472;2022-08-19T07:47:14;29.75;;;19.95;;
50769;SDS011;36740;48.698;11.472;2022-08-19T07:50:01;33.63;;;22.48;;
50769;SDS011;36740;48.698;11.472;2022-08-19T07:52:49;31.13;;;18.77;;
50769;SDS011;36740;48.698;11.472;2022-08-19T07:55:35;29.63;;;20.65;;
50769;SDS011;36740;48.698;11.472;2022-08-19T07:58:22;29.95;;;22.67;;
50769;SDS011;36740;48.698;11.472;2022-08-19T08:01:09;36.03;;;20.40;;
50769;SDS011;36740;48.698;11.472;2022-08-19T08:03:56;35.55;;;22.48;;
50769;SDS011;36740;48.698;11.472;2022-08-19T08:07:00;30.65;;;22.38;;
50769;SDS011;36740;48.698;11.472;2022-08-19T08:10:05;33.30;;;20.30;;
50769;SDS011;36740;48.698;11.472;2022-08-19T08:12:52;32.92;;;23.15;;
50769;SDS011;36740;48.698;11.472;2022-08-19T08:15:38;33.58;;;22.38;;
50769;SDS011;36740;48.698;11.472;2022-08-19T08:18:24;30.10;;;21.30;;
50769;SDS011;36740;48.698;11.472;2022-08-19T08:21:10;33.97;;;23.08;;
50769;SDS011;36740;48.698;11.472;2022-08-19T08:23:56;33.72;;;21.60;;
50769;SDS011;36740;48.698;11.472;2022-08-19T08:26:41;31.15;;;19.65;;
50769;SDS011;36740;48.698;11.472;2022-08-19T08:29:29;30.52;;;22.67;;
50769;SDS011;36740;48.698;11.472;2022-08-19T08:32:15;27.55;;;17.83;;
50769;SDS011;36740;48.698;11.472;2022-08-19T08:35:01;31.55;;;21.40;;
50769;SDS011;36740;48.698;11.472;2022-08-19T08:37:47;33.75;;;22.55;;
50769;SDS011;36740;48.698;11.472;2022-08-19T08:40:45;30.25;;;19.80;;
50769;SDS011;36740;48.698;11.472;2022-08-19T08:43:44;36.92;;;25.98;;
50769;SDS011;36740;48.698;11.472;2022-08-19T08:46:34;38.80;;;22.80;;
50769;SDS011;36740;48.698;11.472;2022-08-19T08:52:22;34.95;;;22.92;;
50769;SDS011;36740;48.698;11.472;2022-08-19T08:55:13;35.72;;;24.67;;
50769;SDS011;36740;48.698;11.472;2022-08-19T09:00:48;32.50;;;24.20;;
50769;SDS011;36740;48.698;11.472;2022-08-19T09:03:36;42.67;;;24.95;;
50769;SDS011;36740;48.698;11.472;2022-08-19T09:15:07;36.35;;;23.92;;
50769;SDS011;36740;48.698;11.472;2022-08-19T09:17:54;30.23;;;21.02;;
50769;SDS011;36740;48.698;11.472;2022-08-19T09:20:40;31.50;;;21.48;;
50769;SDS011;36740;48.698;11.472;2022-08-19T09:23:25;30.05;;;21.88;;
50769;SDS011;36740;48.698;11.472;2022-08-19T09:26:12;30.35;;;18.80;;
50769;SDS011;36740;48.698;11.472;2022-08-19T09:29:01;32.30;;;21.90;;
50769;SDS011;36740;48.698;11.472;2022-08-19T09:31:50;28.27;;;19.35;;
50769;SDS011;36740;48.698;11.472;2022-08-19T09:34:36;29.88;;;20.67;;
50769;SDS011;36740;48.698;11.472;2022-08-19T09:37:21;26.48;;;19.02;;
50769;SDS011;36740;48.698;11.472;2022-08-19T09:40:08;32.60;;;21.75;;
50769;SDS011;36740;48.698;11.472;2022-08-19T09:42:53;34.38;;;24.15;;
50769;SDS011;36740;48.698;11.472;2022-08-19T09:45:40;32.85;;;24.10;;
50769;SDS011;36740;48.698;11.472;2022-08-19T09:48:26;32.72;;;21.58;;
50769;SDS011;36740;48.698;11.472;2022-08-19T09:51:12;32.17;;;20.23;;
50769;SDS011;36740;48.698;11.472;2022-08-19T09:54:01;28.85;;;20.15;;
50769;SDS011;36740;48.698;11.472;2022-08-19T09:56:47;31.67;;;20.48;;
50769;SDS011;36740;48.698;11.472;2022-08-19T09:59:33;27.17;;;18.90;;
50769;SDS011;36740;48.698;11.472;2022-08-19T10:02:19;30.20;;;19.98;;
50769;SDS011;36740;48.698;11.472;2022-08-19T10:05:04;36.92;;;24.95;;
50769;SDS011;36740;48.698;11.472;2022-08-19T10:08:09;24.85;;;17.52;;
50769;SDS011;36740;48.698;11.472;2022-08-19T10:10:55;25.88;;;17.30;;
50769;SDS011;36740;48.698;11.472;2022-08-19T10:13:41;33.75;;;19.17;;
50769;SDS011;36740;48.698;11.472;2022-08-19T10:16:27;23.23;;;14.95;;
50769;SDS011;36740;48.698;11.472;2022-08-19T10:19:13;25.77;;;17.65;;
50769;SDS011;36740;48.698;11.472;2022-08-19T10:21:59;32.28;;;19.40;;
50769;SDS011;36740;48.698;11.472;2022-08-19T10:24:47;32.63;;;19.60;;
50769;SDS011;36740;48.698;11.472;2022-08-19T10:27:33;30.13;;;20.70;;
50769;SDS011;36740;48.698;11.472;2022-08-19T10:30:18;34.75;;;21.48;;
50769;SDS011;36740;48.698;11.472;2022-08-19T10:33:04;27.20;;;18.65;;
50769;SDS011;36740;48.698;11.472;2022-08-19T10:35:58;30.13;;;21.23;;
50769;SDS011;36740;48.698;11.472;2022-08-19T10:38:45;30.48;;;19.08;;
50769;SDS011;36740;48.698;11.472;2022-08-19T10:41:32;28.67;;;19.02;;
50769;SDS011;36740;48.698;11.472;2022-08-19T10:44:18;28.25;;;19.63;;
50769;SDS011;36740;48.698;11.472;2022-08-19T10:47:05;30.25;;;20.58;;
50769;SDS011;36740;48.698;11.472;2022-08-19T10:49:51;26.02;;;18.80;;
50769;SDS011;36740;48.698;11.472;2022-08-19T10:52:55;30.65;;;20.08;;
50769;SDS011;36740;48.698;11.472;2022-08-19T10:55:41;27.42;;;19.45;;
50769;SDS011;36740;48.698;11.472;2022-08-19T10:58:45;36.45;;;25.02;;
50769;SDS011;36740;48.698;11.472;2022-08-19T11:01:31;30.70;;;21.63;;
50769;SDS011;36740;48.698;11.472;2022-08-19T11:04:18;32.00;;;23.85;;
50769;SDS011;36740;48.698;11.472;2022-08-19T11:07:05;31.35;;;22.65;;
50769;SDS011;36740;48.698;11.472;2022-08-19T11:09:51;34.88;;;22.77;;
50769;SDS011;36740;48.698;11.472;2022-08-19T11:12:37;34.92;;;20.45;;
50769;SDS011;36740;48.698;11.472;2022-08-19T11:15:24;29.73;;;21.90;;
50769;SDS011;36740;48.698;11.472;2022-08-19T11:18:10;29.67;;;19.27;;
50769;SDS011;36740;48.698;11.472;2022-08-19T11:21:04;33.70;;;22.00;;
50769;SDS011;36740;48.698;11.472;2022-08-19T11:23:52;26.80;;;19.55;;
50769;SDS011;36740;48.698;11.472;2022-08-19T11:26:38;30.15;;;20.63;;
50769;SDS011;36740;48.698;11.472;2022-08-19T11:29:24;31.60;;;22.83;;
50769;SDS011;36740;48.698;11.472;2022-08-19T11:32:11;30.30;;;22.45;;
50769;SDS011;36740;48.698;11.472;2022-08-19T11:34:58;37.45;;;20.20;;
50769;SDS011;36740;48.698;11.472;2022-08-19T11:37:43;31.27;;;20.85;;
50769;SDS011;36740;48.698;11.472;2022-08-19T11:40:29;30.00;;;18.38;;
50769;SDS011;36740;48.698;11.472;2022-08-19T11:43:15;31.13;;;20.27;;
50769;SDS011;36740;48.698;11.472;2022-08-19T11:46:03;31.15;;;20.45;;
50769;SDS011;36740;48.698;11.472;2022-08-19T11:48:49;26.98;;;19.48;;
50769;SDS011;36740;48.698;11.472;2022-08-19T11:51:35;25.83;;;19.10;;
50769;SDS011;36740;48.698;11.472;2022-08-19T11:54:21;34.75;;;22.95;;
50769;SDS011;36740;48.698;11.472;2022-08-19T11:57:07;33.25;;;20.95;;
50769;SDS011;36740;48.698;11.472;2022-08-19T11:59:53;30.67;;;20.95;;
50769;SDS011;36740;48.698;11.472;2022-08-19T12:02:39;23.20;;;15.93;;
50769;SDS011;36740;48.698;11.472;2022-08-19T12:05:24;22.98;;;12.77;;
50769;SDS011;36740;48.698;11.472;2022-08-19T12:08:11;22.67;;;11.18;;
50769;SDS011;36740;48.698;11.472;2022-08-19T12:10:58;17.08;;;12.25;;
50769;SDS011;36740;48.698;11.472;2022-08-19T12:13:46;16.30;;;12.63;;
50769;SDS011;36740;48.698;11.472;2022-08-19T12:16:32;20.90;;;9.20;;
50769;SDS011;36740;48.698;11.472;2022-08-19T12:19:18;16.38;;;8.15;;
50769;SDS011;36740;48.698;11.472;2022-08-19T12:22:04;28.73;;;9.10;;
50769;SDS011;36740;48.698;11.472;2022-08-19T12:24:51;13.02;;;7.65;;
50769;SDS011;36740;48.698;11.472;2022-08-19T12:27:40;21.00;;;10.38;;
50769;SDS011;36740;48.698;11.472;2022-08-19T12:30:26;29.92;;;11.70;;
50769;SDS011;36740;48.698;11.472;2022-08-19T12:33:12;10.80;;;7.22;;
50769;SDS011;36740;48.698;11.472;2022-08-19T12:36:06;18.75;;;9.30;;
50769;SDS011;36740;48.698;11.472;2022-08-19T12:38:52;23.05;;;12.38;;
50769;SDS011;36740;48.698;11.472;2022-08-19T12:41:37;19.60;;;9.90;;
50769;SDS011;36740;48.698;11.472;2022-08-19T12:44:24;19.75;;;10.30;;
50769;SDS011;36740;48.698;11.472;2022-08-19T12:47:10;24.80;;;11.73;;
50769;SDS011;36740;48.698;11.472;2022-08-19T12:49:57;13.57;;;9.35;;
50769;SDS011;36740;48.698;11.472;2022-08-19T12:52:43;15.30;;;10.23;;
50769;SDS011;36740;48.698;11.472;2022-08-19T12:55:28;25.67;;;12.10;;
50769;SDS011;36740;48.698;11.472;2022-08-19T12:58:14;16.13;;;10.52;;
50769;SDS011;36740;48.698;11.472;2022-08-19T13:01:07;18.33;;;10.45;;
50769;SDS011;36740;48.698;11.472;2022-08-19T13:03:53;16.05;;;8.70;;
50769;SDS011;36740;48.698;11.472;2022-08-19T13:06:39;14.20;;;7.47;;
50769;SDS011;36740;48.698;11.472;2022-08-19T13:09:25;12.73;;;6.28;;
50769;SDS011;36740;48.698;11.472;2022-08-19T13:12:10;30.38;;;8.52;;
50769;SDS011;36740;48.698;11.472;2022-08-19T13:14:58;10.10;;;5.25;;
50769;SDS011;36740;48.698;11.472;2022-08-19T13:17:44;11.48;;;6.82;;
50769;SDS011;36740;48.698;11.472;2022-08-19T13:20:29;9.32;;;5.45;;
50769;SDS011;36740;48.698;11.472;2022-08-19T13:23:15;11.25;;;7.88;;
50769;SDS011;36740;48.698;11.472;2022-08-19T13:26:02;12.45;;;7.25;;
50769;SDS011;36740;48.698;11.472;2022-08-19T13:28:50;18.42;;;8.70;;
50769;SDS011;36740;48.698;11.472;2022-08-19T13:31:54;16.60;;;8.63;;
50769;SDS011;36740;48.698;11.472;2022-08-19T13:34:58;15.18;;;9.55;;
50769;SDS011;36740;48.698;11.472;2022-08-19T13:37:44;16.13;;;11.30;;
50769;SDS011;36740;48.698;11.472;2022-08-19T13:40:30;16.38;;;9.95;;
50769;SDS011;36740;48.698;11.472;2022-08-19T13:43:19;23.17;;;11.13;;
50769;SDS011;36740;48.698;11.472;2022-08-19T13:46:08;15.13;;;8.45;;
50769;SDS011;36740;48.698;11.472;2022-08-19T13:48:55;12.15;;;8.23;;
50769;SDS011;36740;48.698;11.472;2022-08-19T13:51:42;11.98;;;8.18;;
50769;SDS011;36740;48.698;11.472;2022-08-19T13:54:28;28.23;;;10.07;;
50769;SDS011;36740;48.698;11.472;2022-08-19T13:57:13;16.58;;;9.80;;
50769;SDS011;36740;48.698;11.472;2022-08-19T13:59:59;17.48;;;10.02;;
50769;SDS011;36740;48.698;11.472;2022-08-19T14:02:46;16.10;;;10.50;;
50769;SDS011;36740;48.698;11.472;2022-08-19T14:05:32;16.05;;;10.50;;
50769;SDS011;36740;48.698;11.472;2022-08-19T14:08:19;16.85;;;10.85;;
50769;SDS011;36740;48.698;11.472;2022-08-19T14:11:04;17.08;;;11.15;;
50769;SDS011;36740;48.698;11.472;2022-08-19T14:13:50;14.68;;;9.30;;
50769;SDS011;36740;48.698;11.472;2022-08-19T14:16:36;18.35;;;12.43;;
50769;SDS011;36740;48.698;11.472;2022-08-19T14:19:22;20.27;;;12.35;;
50769;SDS011;36740;48.698;11.472;2022-08-19T14:22:08;19.75;;;11.65;;
50769;SDS011;36740;48.698;11.472;2022-08-19T14:24:57;19.95;;;14.52;;
50769;SDS011;36740;48.698;11.472;2022-08-19T14:27:42;19.67;;;14.07;;
50769;SDS011;36740;48.698;11.472;2022-08-19T14:30:30;21.13;;;13.68;;
50769;SDS011;36740;48.698;11.472;2022-08-19T14:33:16;24.10;;;13.15;;
50769;SDS011;36740;48.698;11.472;2022-08-19T14:36:03;21.95;;;13.18;;
50769;SDS011;36740;48.698;11.472;2022-08-19T14:38:48;26.67;;;16.92;;
50769;SDS011;36740;48.698;11.472;2022-08-19T14:41:35;25.88;;;15.32;;
50769;SDS011;36740;48.698;11.472;2022-08-19T14:44:24;32.17;;;20.02;;
50769;SDS011;36740;48.698;11.472;2022-08-19T14:47:10;29.33;;;17.27;;
50769;SDS011;36740;48.698;11.472;2022-08-19T14:49:55;23.75;;;15.57;;
50769;SDS011;36740;48.698;11.472;2022-08-19T14:52:41;27.58;;;16.77;;
50769;SDS011;36740;48.698;11.472;2022-08-19T14:55:27;21.58;;;16.92;;
50769;SDS011;36740;48.698;11.472;2022-08-19T14:58:12;31.30;;;17.48;;
50769;SDS011;36740;48.698;11.472;2022-08-19T15:00:58;28.33;;;17.92;;
50769;SDS011;36740;48.698;11.472;2022-08-19T15:03:48;25.83;;;16.50;;
50769;SDS011;36740;48.698;11.472;2022-08-19T15:06:34;26.83;;;16.63;;
50769;SDS011;36740;48.698;11.472;2022-08-19T15:09:20;18.90;;;13.75;;
50769;SDS011;36740;48.698;11.472;2022-08-19T15:12:05;28.08;;;17.02;;
50769;SDS011;36740;48.698;11.472;2022-08-19T15:14:52;25.30;;;16.52;;
50769;SDS011;36740;48.698;11.472;2022-08-19T15:17:38;24.25;;;16.15;;
50769;SDS011;36740;48.698;11.472;2022-08-19T15:20:25;24.10;;;18.05;;
50769;SDS011;36740;48.698;11.472;2022-08-19T15:23:11;20.58;;;14.63;;
50769;SDS011;36740;48.698;11.472;2022-08-19T15:25:57;34.40;;;17.20;;
50769;SDS011;36740;48.698;11.472;2022-08-19T15:28:43;26.73;;;19.48;;
50769;SDS011;36740;48.698;11.472;2022-08-19T15:31:29;30.15;;;20.58;;
50769;SDS011;36740;48.698;11.472;2022-08-19T15:34:17;23.92;;;17.50;;
50769;SDS011;36740;48.698;11.472;2022-08-19T15:37:03;27.85;;;15.45;;
50769;SDS011;36740;48.698;11.472;2022-08-19T15:39:50;34.17;;;18.70;;
50769;SDS011;36740;48.698;11.472;2022-08-19T15:42:36;21.98;;;14.30;;
50769;SDS011;36740;48.698;11.472;2022-08-19T15:45:22;21.63;;;14.20;;
50769;SDS011;36740;48.698;11.472;2022-08-19T15:48:16;26.85;;;15.68;;
50769;SDS011;36740;48.698;11.472;2022-08-19T15:51:02;24.30;;;16.00;;
50769;SDS011;36740;48.698;11.472;2022-08-19T15:53:48;27.33;;;18.33;;
50769;SDS011;36740;48.698;11.472;2022-08-19T15:56:34;20.10;;;14.32;;
50769;SDS011;36740;48.698;11.472;2022-08-19T15:59:38;22.13;;;15.52;;
50769;SDS011;36740;48.698;11.472;2022-08-19T16:02:42;23.42;;;15.95;;
50769;SDS011;36740;48.698;11.472;2022-08-19T16:05:47;26.23;;;15.18;;
50769;SDS011;36740;48.698;11.472;2022-08-19T16:08:51;21.67;;;14.73;;
50769;SDS011;36740;48.698;11.472;2022-08-19T16:11:39;26.60;;;14.75;;
50769;SDS011;36740;48.698;11.472;2022-08-19T16:14:25;19.73;;;12.95;;
50769;SDS011;36740;48.698;11.472;2022-08-19T16:17:10;18.52;;;11.98;;
50769;SDS011;36740;48.698;11.472;2022-08-19T16:19:57;19.33;;;12.30;;